map of AXA home
AXA - Airport
Location
City:  The Valley, Anguilla, Anguilla
Name:Clayton J. Lloyd International Airport
Old (Alt.):Anguilla Wallblake Airport
ICAO:TQPF
IATA:AXA

Details
Type:Airport (Aerodrome, Airfield)
Use:International (customs port of entry)
Latitude:1812'17"N (18.204722)
Longitude:6303'14"W (-63.053888)
Elevation:128 ft (39 m)
Variation:14.38W (WMM2015 magnetic declination)
-0.03 annual change
Runways:1
Longest:5463 × 98 ft (1665 × 30 m)

Time
Time Zone:UTC-4
Local Time:

Weather
METAR:TQPF 182000Z 10009KT 9999 FEW021 26/16 Q1016
TAF:TQPF 181100Z 1812/1912 08008KT 9999 SCT020

Related Locations
Nearby:
Farthest:WHM: 12260 mi / 19730 km
Wickham, WA, AU

Find:

   beyond  
but within

Other Information
Maps:
NOTAMs:
Links:
Sources:

  
  • flag of Anguilla
  

Airport Diagram

Airport diagram for AXA

Airport diagram PDF

Sectional Chart

Flight Planning
at skyvector.com

Satellite Image

Google Maps Satellite view

 

Copyright © 2004-2019 Karl L. Swartz. All rights reserved.
The Great Circle Mapper name and logo are trademarks of the Great Circle Mapper.
All other trademarks mentioned herein belong to their respective owners.
Please see credits for attibutions and further copyright information.

  Follow gcmap on Facebook Follow gcmap on Twitter Follow gcmap on Google+ GCmap on LinkedIn

hCard Microformat

Geo Microformat